sensor_id;sensor_type;location;lat;lon;timestamp;pressure;altitude;pressure_sealevel;temperature;humidity
42847;BME280;28495;49.916;14.536;2023-01-16T00:04:36;95868.75;;;3.28;64.74
42847;BME280;28495;49.916;14.536;2023-01-16T00:09:56;95870.16;;;3.20;65.48
42847;BME280;28495;49.916;14.536;2023-01-16T00:15:17;95858.47;;;3.28;65.06
42847;BME280;28495;49.916;14.536;2023-01-16T00:20:38;95853.88;;;3.20;65.10
42847;BME280;28495;49.916;14.536;2023-01-16T00:25:59;95846.25;;;3.18;65.13
42847;BME280;28495;49.916;14.536;2023-01-16T00:31:19;95845.09;;;3.11;64.65
42847;BME280;28495;49.916;14.536;2023-01-16T00:36:40;95835.72;;;3.22;64.65
42847;BME280;28495;49.916;14.536;2023-01-16T00:42:01;95828.69;;;3.35;64.75
42847;BME280;28495;49.916;14.536;2023-01-16T00:47:22;95833.25;;;3.31;65.06
42847;BME280;28495;49.916;14.536;2023-01-16T00:52:42;95835.47;;;3.36;64.95
42847;BME280;28495;49.916;14.536;2023-01-16T00:58:03;95826.63;;;3.17;64.46
42847;BME280;28495;49.916;14.536;2023-01-16T01:03:24;95818.75;;;3.08;64.42
42847;BME280;28495;49.916;14.536;2023-01-16T01:08:47;95820.41;;;3.09;65.32
42847;BME280;28495;49.916;14.536;2023-01-16T01:14:08;95821.31;;;3.30;64.96
42847;BME280;28495;49.916;14.536;2023-01-16T01:19:28;95825.31;;;3.34;65.19
42847;BME280;28495;49.916;14.536;2023-01-16T01:25:05;95816.63;;;3.47;64.79
42847;BME280;28495;49.916;14.536;2023-01-16T01:30:26;95811.78;;;3.54;64.84
42847;BME280;28495;49.916;14.536;2023-01-16T01:35:46;95802.41;;;3.53;64.66
42847;BME280;28495;49.916;14.536;2023-01-16T01:41:09;95801.47;;;3.54;64.93
42847;BME280;28495;49.916;14.536;2023-01-16T01:46:46;95791.75;;;3.57;64.97
42847;BME280;28495;49.916;14.536;2023-01-16T01:52:07;95792.84;;;3.43;64.70
42847;BME280;28495;49.916;14.536;2023-01-16T01:57:34;95791.56;;;3.38;63.82
42847;BME280;28495;49.916;14.536;2023-01-16T02:03:07;95782.88;;;3.27;64.19
42847;BME280;28495;49.916;14.536;2023-01-16T02:08:31;95774.22;;;3.28;64.29
42847;BME280;28495;49.916;14.536;2023-01-16T02:14:00;95767.53;;;3.37;64.37
42847;BME280;28495;49.916;14.536;2023-01-16T02:19:40;95767.03;;;3.55;64.59
42847;BME280;28495;49.916;14.536;2023-01-16T02:37:10;95724.84;;;3.56;64.03
42847;BME280;28495;49.916;14.536;2023-01-16T02:42:49;95717.41;;;3.41;63.97
42847;BME280;28495;49.916;14.536;2023-01-16T02:53:51;95700.84;;;3.55;64.52
42847;BME280;28495;49.916;14.536;2023-01-16T02:59:17;95701.94;;;3.41;64.01
42847;BME280;28495;49.916;14.536;2023-01-16T03:21:53;95664.53;;;3.14;63.53
42847;BME280;28495;49.916;14.536;2023-01-16T03:27:44;95650.34;;;3.20;64.13
42847;BME280;28495;49.916;14.536;2023-01-16T03:38:43;95642.66;;;3.41;64.04
42847;BME280;28495;49.916;14.536;2023-01-16T03:44:11;95642.50;;;3.43;64.58
42847;BME280;28495;49.916;14.536;2023-01-16T03:49:40;95625.03;;;3.25;63.52
42847;BME280;28495;49.916;14.536;2023-01-16T03:55:13;95617.69;;;3.09;63.77
42847;BME280;28495;49.916;14.536;2023-01-16T04:00:46;95620.50;;;3.06;63.94
42847;BME280;28495;49.916;14.536;2023-01-16T04:06:14;95606.91;;;3.15;63.89
42847;BME280;28495;49.916;14.536;2023-01-16T04:11:38;95597.56;;;3.14;62.98
42847;BME280;28495;49.916;14.536;2023-01-16T04:17:02;95592.22;;;2.95;63.23
42847;BME280;28495;49.916;14.536;2023-01-16T04:22:26;95582.31;;;2.90;63.84
42847;BME280;28495;49.916;14.536;2023-01-16T04:27:47;95581.84;;;2.85;63.71
42847;BME280;28495;49.916;14.536;2023-01-16T04:33:08;95577.84;;;2.81;63.75
42847;BME280;28495;49.916;14.536;2023-01-16T04:38:29;95559.41;;;2.76;63.28
42847;BME280;28495;49.916;14.536;2023-01-16T04:43:49;95562.22;;;2.72;63.86
42847;BME280;28495;49.916;14.536;2023-01-16T04:49:10;95560.72;;;2.70;63.38
42847;BME280;28495;49.916;14.536;2023-01-16T04:54:31;95535.91;;;2.69;63.70
42847;BME280;28495;49.916;14.536;2023-01-16T04:59:52;95531.88;;;2.76;63.65
42847;BME280;28495;49.916;14.536;2023-01-16T05:05:12;95519.72;;;2.78;63.97
42847;BME280;28495;49.916;14.536;2023-01-16T05:10:33;95505.66;;;2.82;63.58
42847;BME280;28495;49.916;14.536;2023-01-16T05:15:54;95509.81;;;2.95;63.82
42847;BME280;28495;49.916;14.536;2023-01-16T05:21:16;95496.69;;;2.98;63.77
42847;BME280;28495;49.916;14.536;2023-01-16T05:26:37;95486.88;;;2.92;63.27
42847;BME280;28495;49.916;14.536;2023-01-16T05:31:58;95471.50;;;2.80;63.28
42847;BME280;28495;49.916;14.536;2023-01-16T05:37:18;95475.00;;;2.79;63.83
42847;BME280;28495;49.916;14.536;2023-01-16T05:42:42;95459.09;;;2.74;63.44
42847;BME280;28495;49.916;14.536;2023-01-16T05:48:03;95463.22;;;2.65;63.74
42847;BME280;28495;49.916;14.536;2023-01-16T05:53:24;95451.13;;;2.56;63.99
42847;BME280;28495;49.916;14.536;2023-01-16T05:58:48;95453.75;;;2.44;63.49
42847;BME280;28495;49.916;14.536;2023-01-16T06:04:10;95435.03;;;2.42;63.88
42847;BME280;28495;49.916;14.536;2023-01-16T06:09:30;95424.75;;;2.42;63.43
42847;BME280;28495;49.916;14.536;2023-01-16T06:14:51;95418.09;;;2.40;64.13
42847;BME280;28495;49.916;14.536;2023-01-16T06:20:12;95413.56;;;2.32;63.41
42847;BME280;28495;49.916;14.536;2023-01-16T06:25:35;95393.78;;;2.33;64.00
42847;BME280;28495;49.916;14.536;2023-01-16T06:30:56;95380.34;;;2.29;63.46
42847;BME280;28495;49.916;14.536;2023-01-16T06:36:17;95360.75;;;2.17;63.36
42847;BME280;28495;49.916;14.536;2023-01-16T06:41:37;95350.25;;;2.08;63.46
42847;BME280;28495;49.916;14.536;2023-01-16T06:46:59;95344.41;;;2.06;63.76
42847;BME280;28495;49.916;14.536;2023-01-16T06:52:20;95336.22;;;2.12;64.09
42847;BME280;28495;49.916;14.536;2023-01-16T06:57:41;95337.00;;;2.24;64.09
42847;BME280;28495;49.916;14.536;2023-01-16T07:03:02;95338.41;;;2.17;63.44
42847;BME280;28495;49.916;14.536;2023-01-16T07:08:23;95334.78;;;2.20;63.72
42847;BME280;28495;49.916;14.536;2023-01-16T07:13:44;95324.75;;;2.17;64.03
42847;BME280;28495;49.916;14.536;2023-01-16T07:19:08;95309.88;;;1.99;63.84
42847;BME280;28495;49.916;14.536;2023-01-16T07:24:51;95299.63;;;1.88;63.84
42847;BME280;28495;49.916;14.536;2023-01-16T07:30:12;95295.06;;;1.91;63.92
42847;BME280;28495;49.916;14.536;2023-01-16T07:35:33;95297.72;;;1.90;64.13
42847;BME280;28495;49.916;14.536;2023-01-16T07:40:54;95278.78;;;2.02;64.25
42847;BME280;28495;49.916;14.536;2023-01-16T07:46:15;95272.03;;;1.90;64.24
42847;BME280;28495;49.916;14.536;2023-01-16T07:51:36;95262.63;;;1.79;64.50
42847;BME280;28495;49.916;14.536;2023-01-16T07:56:57;95254.66;;;2.46;67.29
42847;BME280;28495;49.916;14.536;2023-01-16T08:02:17;95245.91;;;2.27;64.34
42847;BME280;28495;49.916;14.536;2023-01-16T08:07:38;95236.94;;;2.21;64.64
42847;BME280;28495;49.916;14.536;2023-01-16T08:12:59;95227.44;;;2.22;65.11
42847;BME280;28495;49.916;14.536;2023-01-16T08:18:20;95220.16;;;2.27;64.88
42847;BME280;28495;49.916;14.536;2023-01-16T08:23:41;95212.91;;;2.32;64.96
42847;BME280;28495;49.916;14.536;2023-01-16T08:29:01;95195.75;;;2.42;65.15
42847;BME280;28495;49.916;14.536;2023-01-16T08:34:22;95179.50;;;2.52;65.07
42847;BME280;28495;49.916;14.536;2023-01-16T08:39:43;95158.16;;;2.61;65.16
42847;BME280;28495;49.916;14.536;2023-01-16T08:45:04;95144.63;;;2.69;64.85
42847;BME280;28495;49.916;14.536;2023-01-16T08:50:45;95136.81;;;2.80;65.27
42847;BME280;28495;49.916;14.536;2023-01-16T08:56:24;95119.19;;;2.95;65.20
42847;BME280;28495;49.916;14.536;2023-01-16T09:01:45;95113.78;;;3.08;64.95
42847;BME280;28495;49.916;14.536;2023-01-16T09:07:06;95103.50;;;3.18;65.15
42847;BME280;28495;49.916;14.536;2023-01-16T09:12:27;95090.63;;;3.28;65.06
42847;BME280;28495;49.916;14.536;2023-01-16T09:18:07;95092.50;;;3.35;64.30
42847;BME280;28495;49.916;14.536;2023-01-16T09:23:28;95071.31;;;3.42;64.76
42847;BME280;28495;49.916;14.536;2023-01-16T09:28:48;95055.06;;;3.51;64.82
42847;BME280;28495;49.916;14.536;2023-01-16T09:34:10;95037.69;;;3.53;64.50
42847;BME280;28495;49.916;14.536;2023-01-16T09:39:31;95040.13;;;3.55;64.28
42847;BME280;28495;49.916;14.536;2023-01-16T09:44:54;95020.44;;;3.63;64.47
42847;BME280;28495;49.916;14.536;2023-01-16T09:50:33;95013.19;;;3.77;64.42
42847;BME280;28495;49.916;14.536;2023-01-16T09:55:57;94990.34;;;3.92;63.93
42847;BME280;28495;49.916;14.536;2023-01-16T10:01:40;94982.53;;;4.02;64.30
42847;BME280;28495;49.916;14.536;2023-01-16T10:12:36;94957.81;;;4.27;63.99
42847;BME280;28495;49.916;14.536;2023-01-16T10:24:02;94929.06;;;4.40;63.79
42847;BME280;28495;49.916;14.536;2023-01-16T10:29:38;94922.81;;;4.61;63.34
42847;BME280;28495;49.916;14.536;2023-01-16T10:35:35;94907.28;;;4.79;63.16
42847;BME280;28495;49.916;14.536;2023-01-16T10:40:59;94891.53;;;4.90;63.47
42847;BME280;28495;49.916;14.536;2023-01-16T10:46:24;94877.19;;;4.96;62.18
42847;BME280;28495;49.916;14.536;2023-01-16T10:52:12;94872.84;;;4.96;62.51
42847;BME280;28495;49.916;14.536;2023-01-16T10:57:34;94847.53;;;5.00;62.12
42847;BME280;28495;49.916;14.536;2023-01-16T11:03:04;94848.38;;;5.09;62.50
42847;BME280;28495;49.916;14.536;2023-01-16T11:08:29;94830.50;;;5.15;61.98
42847;BME280;28495;49.916;14.536;2023-01-16T11:13:50;94819.88;;;5.27;62.27
42847;BME280;28495;49.916;14.536;2023-01-16T11:19:40;94804.53;;;5.33;61.55
42847;BME280;28495;49.916;14.536;2023-01-16T11:25:02;94795.53;;;5.46;61.46
42847;BME280;28495;49.916;14.536;2023-01-16T11:30:31;94778.09;;;5.48;60.94
42847;BME280;28495;49.916;14.536;2023-01-16T11:35:55;94768.28;;;5.60;60.91
42847;BME280;28495;49.916;14.536;2023-01-16T11:41:20;94757.94;;;5.68;60.80
42847;BME280;28495;49.916;14.536;2023-01-16T11:46:43;94736.59;;;5.74;60.17
42847;BME280;28495;49.916;14.536;2023-01-16T11:52:04;94717.88;;;5.80;59.98
42847;BME280;28495;49.916;14.536;2023-01-16T11:57:52;94705.75;;;6.06;60.42
42847;BME280;28495;49.916;14.536;2023-01-16T12:14:49;94632.88;;;6.42;59.34
42847;BME280;28495;49.916;14.536;2023-01-16T12:32:01;94582.84;;;6.50;58.54
42847;BME280;28495;49.916;14.536;2023-01-16T12:48:54;94532.16;;;6.55;58.03
42847;BME280;28495;49.916;14.536;2023-01-16T12:54:21;94518.94;;;6.50;57.61
42847;BME280;28495;49.916;14.536;2023-01-16T13:00:06;94499.53;;;6.46;58.10
42847;BME280;28495;49.916;14.536;2023-01-16T13:05:33;94494.03;;;6.49;57.74
42847;BME280;28495;49.916;14.536;2023-01-16T13:11:00;94471.06;;;6.46;57.61
42847;BME280;28495;49.916;14.536;2023-01-16T13:16:54;94464.59;;;6.42;57.63
42847;BME280;28495;49.916;14.536;2023-01-16T13:22:23;94456.84;;;6.42;57.62
42847;BME280;28495;49.916;14.536;2023-01-16T13:27:50;94446.59;;;6.49;57.48
42847;BME280;28495;49.916;14.536;2023-01-16T13:33:20;94437.50;;;6.53;57.64
42847;BME280;28495;49.916;14.536;2023-01-16T13:44:26;94409.69;;;6.47;57.42
42847;BME280;28495;49.916;14.536;2023-01-16T13:50:24;94403.72;;;6.46;57.31
42847;BME280;28495;49.916;14.536;2023-01-16T13:55:46;94390.84;;;6.38;57.54
42847;BME280;28495;49.916;14.536;2023-01-16T14:06:52;94384.78;;;6.22;57.66
42847;BME280;28495;49.916;14.536;2023-01-16T14:12:40;94385.94;;;6.20;57.70
42847;BME280;28495;49.916;14.536;2023-01-16T14:18:12;94384.03;;;6.14;57.79
42847;BME280;28495;49.916;14.536;2023-01-16T14:23:36;94377.44;;;6.11;57.97
42847;BME280;28495;49.916;14.536;2023-01-16T14:29:34;94365.31;;;6.12;58.07
42847;BME280;28495;49.916;14.536;2023-01-16T14:35:01;94367.78;;;6.05;58.10
42847;BME280;28495;49.916;14.536;2023-01-16T14:40:25;94368.81;;;5.87;58.09
42847;BME280;28495;49.916;14.536;2023-01-16T14:51:59;94365.41;;;5.55;58.56
42847;BME280;28495;49.916;14.536;2023-01-16T14:57:40;94360.13;;;5.48;58.60
42847;BME280;28495;49.916;14.536;2023-01-16T15:03:08;94347.72;;;5.36;58.79
42847;BME280;28495;49.916;14.536;2023-01-16T15:08:33;94354.69;;;5.27;59.05
42847;BME280;28495;49.916;14.536;2023-01-16T15:14:16;94348.28;;;5.14;59.13
42847;BME280;28495;49.916;14.536;2023-01-16T15:31:40;94349.03;;;4.75;59.62
42847;BME280;28495;49.916;14.536;2023-01-16T15:37:13;94345.78;;;4.65;59.98
42847;BME280;28495;49.916;14.536;2023-01-16T15:42:38;94337.44;;;4.54;59.71
42847;BME280;28495;49.916;14.536;2023-01-16T15:48:40;94312.91;;;4.34;60.08
42847;BME280;28495;49.916;14.536;2023-01-16T15:54:04;94295.03;;;4.16;60.48
42847;BME280;28495;49.916;14.536;2023-01-16T15:59:30;94301.00;;;4.00;60.59
42847;BME280;28495;49.916;14.536;2023-01-16T16:05:02;94296.28;;;3.78;59.97
42847;BME280;28495;49.916;14.536;2023-01-16T16:10:25;94270.19;;;3.65;61.22
42847;BME280;28495;49.916;14.536;2023-01-16T16:16:26;94254.75;;;3.73;63.72
42847;BME280;28495;49.916;14.536;2023-01-16T16:22:09;94240.25;;;3.89;61.55
42847;BME280;28495;49.916;14.536;2023-01-16T16:27:50;94246.34;;;3.63;61.31
42847;BME280;28495;49.916;14.536;2023-01-16T16:33:18;94224.25;;;3.44;61.23
42847;BME280;28495;49.916;14.536;2023-01-16T16:44:07;94257.88;;;3.17;61.41
42847;BME280;28495;49.916;14.536;2023-01-16T16:49:32;94249.94;;;3.11;61.53
42847;BME280;28495;49.916;14.536;2023-01-16T16:54:56;94247.81;;;3.06;61.68
42847;BME280;28495;49.916;14.536;2023-01-16T17:00:18;94243.31;;;3.00;62.29
42847;BME280;28495;49.916;14.536;2023-01-16T17:05:39;94241.34;;;2.94;62.13
42847;BME280;28495;49.916;14.536;2023-01-16T17:11:00;94235.56;;;2.92;62.13
42847;BME280;28495;49.916;14.536;2023-01-16T17:16:23;94241.16;;;2.87;62.43
42847;BME280;28495;49.916;14.536;2023-01-16T17:21:45;94223.75;;;2.81;62.94
42847;BME280;28495;49.916;14.536;2023-01-16T17:27:06;94197.84;;;2.74;62.62
42847;BME280;28495;49.916;14.536;2023-01-16T17:32:30;94205.38;;;2.67;63.16
42847;BME280;28495;49.916;14.536;2023-01-16T17:37:51;94203.63;;;2.68;63.58
42847;BME280;28495;49.916;14.536;2023-01-16T17:43:16;94205.25;;;2.69;62.58
42847;BME280;28495;49.916;14.536;2023-01-16T17:48:56;94198.94;;;2.63;63.18
42847;BME280;28495;49.916;14.536;2023-01-16T17:54:17;94185.44;;;2.61;63.43
42847;BME280;28495;49.916;14.536;2023-01-16T17:59:58;94203.09;;;2.56;63.52
42847;BME280;28495;49.916;14.536;2023-01-16T18:05:19;94193.91;;;2.53;63.37
42847;BME280;28495;49.916;14.536;2023-01-16T18:10:41;94189.72;;;2.52;63.83
42847;BME280;28495;49.916;14.536;2023-01-16T18:16:05;94195.66;;;2.53;64.30
42847;BME280;28495;49.916;14.536;2023-01-16T18:21:45;94178.38;;;2.71;64.76
42847;BME280;28495;49.916;14.536;2023-01-16T18:27:21;94165.81;;;2.68;63.72
42847;BME280;28495;49.916;14.536;2023-01-16T18:32:42;94171.59;;;2.62;64.01
42847;BME280;28495;49.916;14.536;2023-01-16T18:38:03;94164.84;;;2.61;64.34
42847;BME280;28495;49.916;14.536;2023-01-16T18:43:42;94160.97;;;2.65;64.42
42847;BME280;28495;49.916;14.536;2023-01-16T18:49:21;94167.22;;;2.54;63.89
42847;BME280;28495;49.916;14.536;2023-01-16T18:55:00;94166.56;;;2.52;63.67
42847;BME280;28495;49.916;14.536;2023-01-16T19:00:57;94157.25;;;2.51;64.29
42847;BME280;28495;49.916;14.536;2023-01-16T19:06:36;94152.41;;;2.48;64.34
42847;BME280;28495;49.916;14.536;2023-01-16T19:12:00;94149.66;;;2.41;64.23
42847;BME280;28495;49.916;14.536;2023-01-16T19:17:23;94146.59;;;2.38;64.65
42847;BME280;28495;49.916;14.536;2023-01-16T19:22:46;94133.84;;;2.36;64.91
42847;BME280;28495;49.916;14.536;2023-01-16T19:28:07;94130.19;;;2.39;64.50
42847;BME280;28495;49.916;14.536;2023-01-16T19:33:28;94106.22;;;2.38;65.12
42847;BME280;28495;49.916;14.536;2023-01-16T19:38:51;94103.34;;;2.50;65.21
42847;BME280;28495;49.916;14.536;2023-01-16T19:44:13;94082.50;;;2.61;65.03
42847;BME280;28495;49.916;14.536;2023-01-16T19:49:52;94078.50;;;2.67;64.86
42847;BME280;28495;49.916;14.536;2023-01-16T19:55:13;94074.31;;;2.66;64.44
42847;BME280;28495;49.916;14.536;2023-01-16T20:00:37;94075.25;;;2.56;64.72
42847;BME280;28495;49.916;14.536;2023-01-16T20:05:58;94095.97;;;2.47;64.83
42847;BME280;28495;49.916;14.536;2023-01-16T20:11:20;94082.78;;;2.41;65.40
42847;BME280;28495;49.916;14.536;2023-01-16T20:17:04;94054.94;;;2.37;64.94
42847;BME280;28495;49.916;14.536;2023-01-16T20:22:29;94057.66;;;2.35;65.38
42847;BME280;28495;49.916;14.536;2023-01-16T20:27:56;94045.47;;;2.37;65.64
42847;BME280;28495;49.916;14.536;2023-01-16T20:33:17;94030.19;;;2.44;65.92
42847;BME280;28495;49.916;14.536;2023-01-16T20:38:39;94018.28;;;2.43;65.75
42847;BME280;28495;49.916;14.536;2023-01-16T20:44:03;94020.88;;;2.43;65.51
42847;BME280;28495;49.916;14.536;2023-01-16T20:49:42;94031.63;;;2.38;65.32
42847;BME280;28495;49.916;14.536;2023-01-16T20:55:06;94036.28;;;2.35;65.32
42847;BME280;28495;49.916;14.536;2023-01-16T21:00:28;94035.81;;;2.31;65.38
42847;BME280;28495;49.916;14.536;2023-01-16T21:05:50;94030.97;;;2.28;65.91
42847;BME280;28495;49.916;14.536;2023-01-16T21:11:13;94024.53;;;2.24;66.08
42847;BME280;28495;49.916;14.536;2023-01-16T21:16:54;94020.66;;;2.20;65.74
42847;BME280;28495;49.916;14.536;2023-01-16T21:22:36;94012.63;;;2.15;66.53
42847;BME280;28495;49.916;14.536;2023-01-16T21:27:58;94016.94;;;2.14;65.97
42847;BME280;28495;49.916;14.536;2023-01-16T21:33:20;94007.31;;;2.16;66.87
42847;BME280;28495;49.916;14.536;2023-01-16T21:38:41;93985.78;;;2.17;66.51
42847;BME280;28495;49.916;14.536;2023-01-16T21:44:02;93976.78;;;2.13;66.46
42847;BME280;28495;49.916;14.536;2023-01-16T21:49:52;93983.22;;;2.09;66.09
42847;BME280;28495;49.916;14.536;2023-01-16T21:55:13;93979.97;;;2.07;66.85
42847;BME280;28495;49.916;14.536;2023-01-16T22:00:35;93984.47;;;2.05;66.89
42847;BME280;28495;49.916;14.536;2023-01-16T22:05:56;93967.28;;;2.05;66.48
42847;BME280;28495;49.916;14.536;2023-01-16T22:11:19;93957.16;;;2.04;66.93
42847;BME280;28495;49.916;14.536;2023-01-16T22:16:58;93953.31;;;2.16;67.17
42847;BME280;28495;49.916;14.536;2023-01-16T22:22:39;93962.78;;;2.07;66.58
42847;BME280;28495;49.916;14.536;2023-01-16T22:28:12;93964.06;;;2.03;66.51
42847;BME280;28495;49.916;14.536;2023-01-16T22:33:36;93981.53;;;1.91;66.75
42847;BME280;28495;49.916;14.536;2023-01-16T22:38:57;93979.44;;;1.87;66.94
42847;BME280;28495;49.916;14.536;2023-01-16T22:44:18;93967.38;;;1.87;66.93
42847;BME280;28495;49.916;14.536;2023-01-16T22:49:57;93963.56;;;1.91;66.80
42847;BME280;28495;49.916;14.536;2023-01-16T22:55:20;93965.00;;;1.94;67.00
42847;BME280;28495;49.916;14.536;2023-01-16T23:00:40;93960.19;;;1.99;66.79
42847;BME280;28495;49.916;14.536;2023-01-16T23:06:01;93967.75;;;2.01;66.78
42847;BME280;28495;49.916;14.536;2023-01-16T23:11:28;93965.34;;;1.99;66.88
42847;BME280;28495;49.916;14.536;2023-01-16T23:16:53;93964.06;;;2.03;66.51
42847;BME280;28495;49.916;14.536;2023-01-16T23:22:14;93956.03;;;2.06;66.56
42847;BME280;28495;49.916;14.536;2023-01-16T23:27:35;93959.25;;;2.00;66.67
42847;BME280;28495;49.916;14.536;2023-01-16T23:32:56;93954.41;;;2.05;66.54
42847;BME280;28495;49.916;14.536;2023-01-16T23:38:18;93938.19;;;2.05;66.63
42847;BME280;28495;49.916;14.536;2023-01-16T23:43:39;93934.19;;;2.10;66.63
42847;BME280;28495;49.916;14.536;2023-01-16T23:49:18;93933.06;;;2.05;66.67
42847;BME280;28495;49.916;14.536;2023-01-16T23:54:40;93929.06;;;2.10;66.72
